PWSweather.com
Personal Weather Stations
Station Observations
GEELONGWX1
Bell Post Hill, GeelongAU

Bell Post HillGeelongAU

Lat: -38.101, Lon: 144.326

Elevation: 204

Station Type: Davis Vantage Pro2

http://www.geelongweather.com

High Low Average
Temperature 64.5°F18.1°C 53.0°F11.7°C 58.0°F14.4°C
Dew Point 51.6°F10.9°C 42.0°F5.6°C 45.0°F7.2°C
Winds 9.4 mph 15.1 kmh Calm Calm 3.0 mph SSW4.8 kmh SSW
Wind Gusts 18.0 mph29.0 kmh -- 7.0 mph11.3 kmh
Humidity 77% 46% 63%
Pressure 30.13 in1020.3 mb 29.89 in1012.2 mb -
Precipitation 0.05 in1.3 mm - -
Hour Temp Dew Point Humidity Winds Wind Gusts Pressure Precip Precip Rate Daily Precip Total
12:00 AM 53.0°F11.7°C 44.2°F6.8°C 72% Calm Calm -- 29.94 in1013.9 mb 0.00 in0.0 mm 0.00 in/hr0.0 mm/hr 0.00 in0.0 mm
12:10 AM 53.1°F11.7°C 44.3°F6.8°C 72% Calm Calm -- 29.94 in1013.9 mb 0.00 in0.0 mm 0.00 in/hr0.0 mm/hr 0.00 in0.0 mm
12:20 AM 53.3°F11.8°C 44.1°F6.7°C 71% 2.2 mph NE3.5 kmh NE 5.0 mph8.0 kmh 29.93 in1013.5 mb 0.00 in0.0 mm 0.00 in/hr0.0 mm/hr 0.00 in0.0 mm
12:30 AM 53.6°F12.0°C 44.4°F6.9°C 71% 2.8 mph NNE4.5 kmh NNE 4.0 mph6.4 kmh 29.93 in1013.5 mb 0.00 in0.0 mm 0.00 in/hr0.0 mm/hr 0.00 in0.0 mm
12:40 AM 53.8°F12.1°C 44.2°F6.8°C 70% 1.0 mph N1.6 kmh N -- 29.93 in1013.5 mb 0.00 in0.0 mm 0.00 in/hr0.0 mm/hr 0.00 in0.0 mm
12:50 AM 53.9°F12.2°C 44.0°F6.7°C 69% 0.1 mph N0.2 kmh N 7.0 mph11.3 kmh 29.92 in1013.2 mb 0.00 in0.0 mm 0.00 in/hr0.0 mm/hr 0.00 in0.0 mm
01:00 AM 54.1°F12.3°C 44.2°F6.8°C 69% 2.7 mph N4.3 kmh N 4.0 mph6.4 kmh 29.92 in1013.2 mb 0.00 in0.0 mm 0.00 in/hr0.0 mm/hr 0.00 in0.0 mm
01:10 AM 54.4°F12.4°C 44.0°F6.7°C 68% 1.4 mph NNE2.3 kmh NNE 5.0 mph8.0 kmh 29.92 in1013.2 mb 0.00 in0.0 mm 0.00 in/hr0.0 mm/hr 0.00 in0.0 mm
01:20 AM 54.5°F12.5°C 44.2°F6.8°C 68% 4.4 mph N7.1 kmh N 9.0 mph14.5 kmh 29.92 in1013.2 mb 0.00 in0.0 mm 0.00 in/hr0.0 mm/hr 0.00 in0.0 mm
01:30 AM 54.7°F12.6°C 44.0°F6.7°C 67% 4.7 mph NNE7.6 kmh NNE 9.0 mph14.5 kmh 29.92 in1013.2 mb 0.00 in0.0 mm 0.00 in/hr0.0 mm/hr 0.00 in0.0 mm
01:40 AM 54.8°F12.7°C 43.7°F6.5°C 66% 4.3 mph N6.9 kmh N 8.0 mph12.9 kmh 29.92 in1013.2 mb 0.00 in0.0 mm 0.00 in/hr0.0 mm/hr 0.00 in0.0 mm
01:50 AM 54.9°F12.7°C 43.7°F6.5°C 66% 3.7 mph NE6.0 kmh NE 6.0 mph9.7 kmh 29.92 in1013.2 mb 0.00 in0.0 mm 0.00 in/hr0.0 mm/hr 0.00 in0.0 mm
02:00 AM 54.9°F12.7°C 43.4°F6.3°C 65% 0.1 mph N0.2 kmh N 4.0 mph6.4 kmh 29.92 in1013.2 mb 0.00 in0.0 mm 0.00 in/hr0.0 mm/hr 0.00 in0.0 mm
02:10 AM 55.0°F12.8°C 43.4°F6.3°C 65% 2.4 mph NE3.9 kmh NE 4.0 mph6.4 kmh 29.91 in1012.9 mb 0.00 in0.0 mm 0.00 in/hr0.0 mm/hr 0.00 in0.0 mm
02:20 AM 54.9°F12.7°C 43.4°F6.3°C 65% 2.4 mph NE3.9 kmh NE 6.0 mph9.7 kmh 29.91 in1012.9 mb 0.00 in0.0 mm 0.00 in/hr0.0 mm/hr 0.00 in0.0 mm
02:30 AM 54.8°F12.7°C 43.3°F6.3°C 65% 2.3 mph N3.7 kmh N 5.0 mph8.0 kmh 29.91 in1012.9 mb 0.00 in0.0 mm 0.00 in/hr0.0 mm/hr 0.00 in0.0 mm
02:40 AM 54.6°F12.6°C 43.1°F6.2°C 65% 0.7 mph NE1.1 kmh NE -- 29.91 in1012.9 mb 0.00 in0.0 mm 0.00 in/hr0.0 mm/hr 0.00 in0.0 mm
02:50 AM 54.4°F12.4°C 42.9°F6.1°C 65% 0.4 mph N0.6 kmh N 5.0 mph8.0 kmh 29.90 in1012.5 mb 0.00 in0.0 mm 0.00 in/hr0.0 mm/hr 0.00 in0.0 mm
03:00 AM 54.2°F12.3°C 42.7°F5.9°C 65% 1.5 mph NE2.4 kmh NE 3.0 mph4.8 kmh 29.90 in1012.5 mb 0.00 in0.0 mm 0.00 in/hr0.0 mm/hr 0.00 in0.0 mm
03:10 AM 54.0°F12.2°C 42.9°F6.1°C 66% 1.9 mph NNE3.1 kmh NNE 5.0 mph8.0 kmh 29.89 in1012.2 mb 0.00 in0.0 mm 0.00 in/hr0.0 mm/hr 0.00 in0.0 mm
03:20 AM 54.0°F12.2°C 42.9°F6.1°C 66% 0.5 mph NE0.8 kmh NE -- 29.89 in1012.2 mb 0.00 in0.0 mm 0.00 in/hr0.0 mm/hr 0.00 in0.0 mm
03:30 AM 54.0°F12.2°C 42.9°F6.1°C 66% 0.2 mph N0.3 kmh N -- 29.89 in1012.2 mb 0.00 in0.0 mm 0.00 in/hr0.0 mm/hr 0.00 in0.0 mm
03:40 AM 54.0°F12.2°C 42.9°F6.1°C 66% 0.2 mph N0.3 kmh N 3.0 mph4.8 kmh 29.89 in1012.2 mb 0.00 in0.0 mm 0.00 in/hr0.0 mm/hr 0.00 in0.0 mm
03:50 AM 54.0°F12.2°C 42.9°F6.1°C 66% 2.3 mph NNE3.7 kmh NNE 4.0 mph6.4 kmh 29.89 in1012.2 mb 0.00 in0.0 mm 0.00 in/hr0.0 mm/hr 0.00 in0.0 mm
04:00 AM 54.1°F12.3°C 42.6°F5.9°C 65% 1.4 mph NNE2.3 kmh NNE 4.0 mph6.4 kmh 29.89 in1012.2 mb 0.00 in0.0 mm 0.00 in/hr0.0 mm/hr 0.00 in0.0 mm
04:10 AM 54.3°F12.4°C 42.8°F6.0°C 65% 2.1 mph NNE3.4 kmh NNE 5.0 mph8.0 kmh 29.89 in1012.2 mb 0.00 in0.0 mm 0.00 in/hr0.0 mm/hr 0.00 in0.0 mm
04:20 AM 54.7°F12.6°C 42.8°F6.0°C 64% 1.3 mph N2.1 kmh N 5.0 mph8.0 kmh 29.89 in1012.2 mb 0.00 in0.0 mm 0.00 in/hr0.0 mm/hr 0.00 in0.0 mm
04:30 AM 54.8°F12.7°C 42.9°F6.1°C 64% Calm Calm -- 29.89 in1012.2 mb 0.00 in0.0 mm 0.00 in/hr0.0 mm/hr 0.00 in0.0 mm
04:40 AM 54.7°F12.6°C 42.8°F6.0°C 64% Calm Calm -- 29.90 in1012.5 mb 0.00 in0.0 mm 0.00 in/hr0.0 mm/hr 0.00 in0.0 mm
04:50 AM 54.6°F12.6°C 42.7°F5.9°C 64% 0.8 mph NE1.3 kmh NE 2.0 mph3.2 kmh 29.90 in1012.5 mb 0.00 in0.0 mm 0.00 in/hr0.0 mm/hr 0.00 in0.0 mm
05:00 AM 54.5°F12.5°C 43.0°F6.1°C 65% 0.4 mph NE0.6 kmh NE 3.0 mph4.8 kmh 29.90 in1012.5 mb 0.00 in0.0 mm 0.00 in/hr0.0 mm/hr 0.00 in0.0 mm
05:10 AM 54.6°F12.6°C 43.5°F6.4°C 66% 2.2 mph N3.5 kmh N 7.0 mph11.3 kmh 29.90 in1012.5 mb 0.00 in0.0 mm 0.00 in/hr0.0 mm/hr 0.00 in0.0 mm
05:20 AM 55.4°F13.0°C 44.2°F6.8°C 66% 4.5 mph NNE7.2 kmh NNE 12.0 mph19.3 kmh 29.90 in1012.5 mb 0.00 in0.0 mm 0.00 in/hr0.0 mm/hr 0.00 in0.0 mm
05:30 AM 56.2°F13.4°C 45.4°F7.4°C 67% 5.5 mph N8.9 kmh N 10.0 mph16.1 kmh 29.90 in1012.5 mb 0.00 in0.0 mm 0.00 in/hr0.0 mm/hr 0.00 in0.0 mm
05:40 AM 56.8°F13.8°C 46.4°F8.0°C 68% 4.9 mph NNE7.9 kmh NNE 9.0 mph14.5 kmh 29.91 in1012.9 mb 0.00 in0.0 mm 0.00 in/hr0.0 mm/hr 0.00 in0.0 mm
05:50 AM 57.1°F13.9°C 46.6°F8.1°C 68% 5.0 mph N8.0 kmh N 8.0 mph12.9 kmh 29.91 in1012.9 mb 0.00 in0.0 mm 0.00 in/hr0.0 mm/hr 0.00 in0.0 mm
06:00 AM 57.0°F13.9°C 46.5°F8.1°C 68% 2.8 mph N4.5 kmh N 8.0 mph12.9 kmh 29.92 in1013.2 mb 0.00 in0.0 mm 0.00 in/hr0.0 mm/hr 0.00 in0.0 mm
06:10 AM 57.0°F13.9°C 46.9°F8.3°C 69% 0.8 mph N1.3 kmh N -- 29.93 in1013.5 mb 0.00 in0.0 mm 0.00 in/hr0.0 mm/hr 0.00 in0.0 mm
06:20 AM 57.0°F13.9°C 47.3°F8.5°C 70% 3.5 mph N5.6 kmh N 8.0 mph12.9 kmh 29.93 in1013.5 mb 0.00 in0.0 mm 0.00 in/hr0.0 mm/hr 0.00 in0.0 mm
06:30 AM 57.0°F13.9°C 47.7°F8.7°C 71% 1.9 mph N3.1 kmh N 2.0 mph3.2 kmh 29.93 in1013.5 mb 0.00 in0.0 mm 0.00 in/hr0.0 mm/hr 0.00 in0.0 mm
06:40 AM 57.2°F14.0°C 48.3°F9.1°C 72% 3.6 mph NNE5.8 kmh NNE 7.0 mph11.3 kmh 29.94 in1013.9 mb 0.00 in0.0 mm 0.00 in/hr0.0 mm/hr 0.00 in0.0 mm
06:50 AM 57.5°F14.2°C 49.3°F9.6°C 74% 3.3 mph N5.3 kmh N 6.0 mph9.7 kmh 29.95 in1014.2 mb 0.00 in0.0 mm 0.00 in/hr0.0 mm/hr 0.00 in0.0 mm
07:00 AM 58.0°F14.4°C 50.4°F10.2°C 76% 6.6 mph NW10.6 kmh NW 9.0 mph14.5 kmh 29.96 in1014.6 mb 0.04 in1.0 mm 0.05 in/hr1.3 mm/hr 0.04 in1.0 mm
07:10 AM 57.7°F14.3°C 50.5°F10.3°C 77% 2.8 mph NNW4.5 kmh NNW 10.0 mph16.1 kmh 29.97 in1014.9 mb 0.01 in0.3 mm 0.06 in/hr1.5 mm/hr 0.04 in1.0 mm
07:20 AM 56.8°F13.8°C 49.6°F9.8°C 77% 7.3 mph NW11.7 kmh NW 15.0 mph24.1 kmh 29.98 in1015.2 mb 0.01 in0.3 mm 0.06 in/hr1.5 mm/hr 0.05 in1.3 mm
07:30 AM 56.2°F13.4°C 49.1°F9.5°C 77% 0.3 mph NW0.5 kmh NW -- 29.98 in1015.2 mb 0.00 in0.0 mm 0.00 in/hr0.0 mm/hr 0.05 in1.3 mm
07:40 AM 55.7°F13.2°C 48.6°F9.2°C 77% 2.3 mph N3.7 kmh N 8.0 mph12.9 kmh 29.99 in1015.6 mb 0.00 in0.0 mm 0.00 in/hr0.0 mm/hr 0.05 in1.3 mm
07:50 AM 55.5°F13.1°C 48.1°F8.9°C 76% 1.5 mph N2.4 kmh N 7.0 mph11.3 kmh 30.00 in1015.9 mb 0.00 in0.0 mm 0.00 in/hr0.0 mm/hr 0.05 in1.3 mm
08:00 AM 55.3°F12.9°C 47.9°F8.8°C 76% 0.8 mph NW1.3 kmh NW -- 30.01 in1016.3 mb 0.00 in0.0 mm 0.00 in/hr0.0 mm/hr 0.05 in1.3 mm
08:10 AM 55.3°F12.9°C 47.9°F8.8°C 76% Calm Calm -- 30.02 in1016.6 mb 0.00 in0.0 mm 0.00 in/hr0.0 mm/hr 0.05 in1.3 mm
08:20 AM 55.3°F12.9°C 47.9°F8.8°C 76% 4.5 mph NW7.2 kmh NW 7.0 mph11.3 kmh 30.03 in1016.9 mb 0.00 in0.0 mm 0.00 in/hr0.0 mm/hr 0.05 in1.3 mm
08:30 AM 55.7°F13.2°C 48.2°F9.0°C 76% 1.2 mph WNW1.9 kmh WNW -- 30.04 in1017.3 mb 0.00 in0.0 mm 0.00 in/hr0.0 mm/hr 0.05 in1.3 mm
08:40 AM 55.5°F13.1°C 48.1°F8.9°C 76% 3.2 mph NW5.1 kmh NW 8.0 mph12.9 kmh 30.04 in1017.3 mb 0.00 in0.0 mm 0.00 in/hr0.0 mm/hr 0.05 in1.3 mm
08:50 AM 56.5°F13.6°C 49.0°F9.4°C 76% 1.5 mph NW2.4 kmh NW 5.0 mph8.0 kmh 30.05 in1017.6 mb 0.00 in0.0 mm 0.00 in/hr0.0 mm/hr 0.05 in1.3 mm
09:00 AM 57.4°F14.1°C 49.9°F9.9°C 76% 2.9 mph NW4.7 kmh NW 6.0 mph9.7 kmh 30.06 in1017.9 mb 0.00 in0.0 mm 0.00 in/hr0.0 mm/hr 0.05 in1.3 mm
09:10 AM 57.6°F14.2°C 50.5°F10.3°C 77% 3.9 mph NW6.3 kmh NW 11.0 mph17.7 kmh 30.06 in1017.9 mb 0.00 in0.0 mm 0.00 in/hr0.0 mm/hr 0.05 in1.3 mm
09:20 AM 58.8°F14.9°C 51.6°F10.9°C 77% 4.3 mph NW6.9 kmh NW 9.0 mph14.5 kmh 30.07 in1018.3 mb 0.00 in0.0 mm 0.00 in/hr0.0 mm/hr 0.05 in1.3 mm
09:30 AM 59.2°F15.1°C 50.2°F10.1°C 72% 6.6 mph WNW10.6 kmh WNW 7.0 mph11.3 kmh 30.07 in1018.3 mb 0.00 in0.0 mm 0.00 in/hr0.0 mm/hr 0.05 in1.3 mm
09:40 AM 59.5°F15.3°C 48.6°F9.2°C 67% 9.3 mph NW15.0 kmh NW 18.0 mph29.0 kmh 30.07 in1018.3 mb 0.00 in0.0 mm 0.00 in/hr0.0 mm/hr 0.05 in1.3 mm
09:50 AM 60.4°F15.8°C 49.8°F9.9°C 68% 4.5 mph W7.2 kmh W 12.0 mph19.3 kmh 30.08 in1018.6 mb 0.00 in0.0 mm 0.00 in/hr0.0 mm/hr 0.05 in1.3 mm
10:00 AM 58.9°F14.9°C 47.1°F8.4°C 65% 9.4 mph WNW15.1 kmh WNW 15.0 mph24.1 kmh 30.08 in1018.6 mb 0.00 in0.0 mm 0.00 in/hr0.0 mm/hr 0.05 in1.3 mm
10:10 AM 58.5°F14.7°C 48.0°F8.9°C 68% 3.0 mph NW4.8 kmh NW 11.0 mph17.7 kmh 30.09 in1019.0 mb 0.00 in0.0 mm 0.00 in/hr0.0 mm/hr 0.05 in1.3 mm
10:20 AM 60.7°F15.9°C 47.6°F8.7°C 62% 6.6 mph NW10.6 kmh NW 14.0 mph22.5 kmh 30.09 in1019.0 mb 0.00 in0.0 mm 0.00 in/hr0.0 mm/hr 0.05 in1.3 mm
10:30 AM 61.0°F16.1°C 46.5°F8.1°C 59% 6.3 mph NNW10.1 kmh NNW 13.0 mph20.9 kmh 30.10 in1019.3 mb 0.00 in0.0 mm 0.00 in/hr0.0 mm/hr 0.05 in1.3 mm
10:40 AM 61.3°F16.3°C 44.0°F6.7°C 53% 8.7 mph NW14.0 kmh NW 13.0 mph20.9 kmh 30.10 in1019.3 mb 0.00 in0.0 mm 0.00 in/hr0.0 mm/hr 0.05 in1.3 mm
10:50 AM 61.7°F16.5°C 42.9°F6.1°C 50% 6.1 mph NW9.8 kmh NW 13.0 mph20.9 kmh 30.10 in1019.3 mb 0.00 in0.0 mm 0.00 in/hr0.0 mm/hr 0.05 in1.3 mm
11:00 AM 61.8°F16.6°C 42.9°F6.1°C 50% 6.2 mph SW10.0 kmh SW 11.0 mph17.7 kmh 30.11 in1019.6 mb 0.00 in0.0 mm 0.00 in/hr0.0 mm/hr 0.05 in1.3 mm
11:10 AM 61.8°F16.6°C 43.0°F6.1°C 50% 6.8 mph WNW10.9 kmh WNW 16.0 mph25.7 kmh 30.11 in1019.6 mb 0.00 in0.0 mm 0.00 in/hr0.0 mm/hr 0.05 in1.3 mm
11:20 AM 62.7°F17.1°C 44.3°F6.8°C 51% 4.4 mph WNW7.1 kmh WNW 11.0 mph17.7 kmh 30.11 in1019.6 mb 0.00 in0.0 mm 0.00 in/hr0.0 mm/hr 0.05 in1.3 mm
11:30 AM 62.9°F17.2°C 44.5°F6.9°C 51% 5.2 mph NW8.4 kmh NW 8.0 mph12.9 kmh 30.12 in1020.0 mb 0.00 in0.0 mm 0.00 in/hr0.0 mm/hr 0.05 in1.3 mm
11:40 AM 63.2°F17.3°C 43.7°F6.5°C 49% 4.5 mph NW7.2 kmh NW 7.0 mph11.3 kmh 30.12 in1020.0 mb 0.00 in0.0 mm 0.00 in/hr0.0 mm/hr 0.05 in1.3 mm
11:50 AM 63.8°F17.7°C 44.8°F7.1°C 50% 3.9 mph WNW6.3 kmh WNW 5.0 mph8.0 kmh 30.12 in1020.0 mb 0.00 in0.0 mm 0.00 in/hr0.0 mm/hr 0.05 in1.3 mm
12:00 PM 63.4°F17.4°C 42.2°F5.7°C 46% 7.4 mph W11.9 kmh W 12.0 mph19.3 kmh 30.12 in1020.0 mb 0.00 in0.0 mm 0.00 in/hr0.0 mm/hr 0.05 in1.3 mm
12:10 PM 63.2°F17.3°C 43.2°F6.2°C 48% 6.5 mph NW10.5 kmh NW 9.0 mph14.5 kmh 30.12 in1020.0 mb 0.00 in0.0 mm 0.00 in/hr0.0 mm/hr 0.05 in1.3 mm
12:20 PM 62.8°F17.1°C 42.8°F6.0°C 48% 1.1 mph NW1.8 kmh NW 6.0 mph9.7 kmh 30.12 in1020.0 mb 0.00 in0.0 mm 0.00 in/hr0.0 mm/hr 0.05 in1.3 mm
12:30 PM 63.5°F17.5°C 42.3°F5.7°C 46% 4.0 mph WNW6.4 kmh WNW 8.0 mph12.9 kmh 30.12 in1020.0 mb 0.00 in0.0 mm 0.00 in/hr0.0 mm/hr 0.05 in1.3 mm
12:40 PM 62.5°F16.9°C 42.5°F5.8°C 48% 4.2 mph WNW6.8 kmh WNW 8.0 mph12.9 kmh 30.12 in1020.0 mb 0.00 in0.0 mm 0.00 in/hr0.0 mm/hr 0.05 in1.3 mm
12:50 PM 63.6°F17.6°C 43.0°F6.1°C 47% 2.9 mph NW4.7 kmh NW 9.0 mph14.5 kmh 30.12 in1020.0 mb 0.00 in0.0 mm 0.00 in/hr0.0 mm/hr 0.05 in1.3 mm
01:00 PM 63.8°F17.7°C 42.6°F5.9°C 46% 1.6 mph NW2.6 kmh NW 3.0 mph4.8 kmh 30.11 in1019.6 mb 0.00 in0.0 mm 0.00 in/hr0.0 mm/hr 0.05 in1.3 mm
01:10 PM 63.6°F17.6°C 42.4°F5.8°C 46% 0.1 mph N0.2 kmh N -- 30.11 in1019.6 mb 0.00 in0.0 mm 0.00 in/hr0.0 mm/hr 0.05 in1.3 mm
01:20 PM 63.1°F17.3°C 42.0°F5.6°C 46% 7.5 mph WNW12.1 kmh WNW 11.0 mph17.7 kmh 30.11 in1019.6 mb 0.00 in0.0 mm 0.00 in/hr0.0 mm/hr 0.05 in1.3 mm
01:30 PM 61.6°F16.4°C 42.2°F5.7°C 49% 2.2 mph NNW3.5 kmh NNW 5.0 mph8.0 kmh 30.11 in1019.6 mb 0.00 in0.0 mm 0.00 in/hr0.0 mm/hr 0.05 in1.3 mm
01:40 PM 63.8°F17.7°C 42.6°F5.9°C 46% 5.2 mph NW8.4 kmh NW 8.0 mph12.9 kmh 30.11 in1019.6 mb 0.00 in0.0 mm 0.00 in/hr0.0 mm/hr 0.05 in1.3 mm
01:50 PM 63.5°F17.5°C 42.9°F6.1°C 47% 2.0 mph NW3.2 kmh NW 10.0 mph16.1 kmh 30.11 in1019.6 mb 0.00 in0.0 mm 0.00 in/hr0.0 mm/hr 0.05 in1.3 mm
02:00 PM 64.2°F17.9°C 43.0°F6.1°C 46% 5.7 mph WNW9.2 kmh WNW 8.0 mph12.9 kmh 30.12 in1020.0 mb 0.00 in0.0 mm 0.00 in/hr0.0 mm/hr 0.05 in1.3 mm
02:10 PM 64.5°F18.1°C 44.9°F7.2°C 49% 7.0 mph WNW11.3 kmh WNW 15.0 mph24.1 kmh 30.12 in1020.0 mb 0.00 in0.0 mm 0.00 in/hr0.0 mm/hr 0.05 in1.3 mm
02:20 PM 63.2°F17.3°C 44.2°F6.8°C 50% 1.7 mph NW2.7 kmh NW 5.0 mph8.0 kmh 30.12 in1020.0 mb 0.00 in0.0 mm 0.00 in/hr0.0 mm/hr 0.05 in1.3 mm
02:30 PM 61.2°F16.2°C 44.4°F6.9°C 54% 5.2 mph NW8.4 kmh NW 7.0 mph11.3 kmh 30.12 in1020.0 mb 0.00 in0.0 mm 0.00 in/hr0.0 mm/hr 0.05 in1.3 mm
02:40 PM 62.6°F17.0°C 44.2°F6.8°C 51% 5.6 mph NW9.0 kmh NW 13.0 mph20.9 kmh 30.12 in1020.0 mb 0.00 in0.0 mm 0.00 in/hr0.0 mm/hr 0.05 in1.3 mm
02:50 PM 62.4°F16.9°C 44.0°F6.7°C 51% 4.5 mph WNW7.2 kmh WNW 5.0 mph8.0 kmh 30.12 in1020.0 mb 0.00 in0.0 mm 0.00 in/hr0.0 mm/hr 0.05 in1.3 mm
03:00 PM 62.5°F16.9°C 43.6°F6.4°C 50% 2.3 mph WNW3.7 kmh WNW 6.0 mph9.7 kmh 30.12 in1020.0 mb 0.00 in0.0 mm 0.00 in/hr0.0 mm/hr 0.05 in1.3 mm
03:10 PM 62.2°F16.8°C 43.3°F6.3°C 50% 2.7 mph NW4.3 kmh NW 4.0 mph6.4 kmh 30.12 in1020.0 mb 0.00 in0.0 mm 0.00 in/hr0.0 mm/hr 0.05 in1.3 mm
03:20 PM 62.2°F16.8°C 43.3°F6.3°C 50% 6.0 mph W9.7 kmh W 10.0 mph16.1 kmh 30.13 in1020.3 mb 0.00 in0.0 mm 0.00 in/hr0.0 mm/hr 0.05 in1.3 mm
03:30 PM 60.5°F15.8°C 43.3°F6.3°C 53% 1.8 mph NW2.9 kmh NW 5.0 mph8.0 kmh 30.13 in1020.3 mb 0.00 in0.0 mm 0.00 in/hr0.0 mm/hr 0.05 in1.3 mm
03:40 PM 60.4°F15.8°C 46.4°F8.0°C 60% 2.3 mph SW3.7 kmh SW 7.0 mph11.3 kmh 30.13 in1020.3 mb 0.00 in0.0 mm 0.00 in/hr0.0 mm/hr 0.05 in1.3 mm
03:50 PM 59.7°F15.4°C 46.2°F7.9°C 61% 2.5 mph SW4.0 kmh SW 6.0 mph9.7 kmh 30.14 in1020.7 mb 0.00 in0.0 mm 0.00 in/hr0.0 mm/hr 0.05 in1.3 mm
04:00 PM 59.7°F15.4°C 46.7°F8.2°C 62% 1.8 mph SW2.9 kmh SW 7.0 mph11.3 kmh 30.14 in1020.7 mb 0.00 in0.0 mm 0.00 in/hr0.0 mm/hr 0.05 in1.3 mm
04:10 PM 59.5°F15.3°C 46.0°F7.8°C 61% 1.5 mph SW2.4 kmh SW 2.0 mph3.2 kmh 30.14 in1020.7 mb 0.00 in0.0 mm 0.00 in/hr0.0 mm/hr 0.05 in1.3 mm
04:20 PM 59.6°F15.3°C 45.2°F7.3°C 59% 1.8 mph WNW2.9 kmh WNW 4.0 mph6.4 kmh 30.14 in1020.7 mb 0.00 in0.0 mm 0.00 in/hr0.0 mm/hr 0.05 in1.3 mm
04:30 PM 59.6°F15.3°C 45.2°F7.3°C 59% 2.1 mph SSW3.4 kmh SSW 6.0 mph9.7 kmh 30.14 in1020.7 mb 0.00 in0.0 mm 0.00 in/hr0.0 mm/hr 0.05 in1.3 mm
04:40 PM 59.5°F15.3°C 45.2°F7.3°C 59% 3.2 mph WSW5.1 kmh WSW 6.0 mph9.7 kmh 30.15 in1021.0 mb 0.00 in0.0 mm 0.00 in/hr0.0 mm/hr 0.05 in1.3 mm
04:50 PM 59.0°F15.0°C 45.1°F7.3°C 60% 4.0 mph WSW6.4 kmh WSW 6.0 mph9.7 kmh 30.15 in1021.0 mb 0.00 in0.0 mm 0.00 in/hr0.0 mm/hr 0.05 in1.3 mm
05:00 PM 58.4°F14.7°C 44.5°F6.9°C 60% 3.1 mph SW5.0 kmh SW 7.0 mph11.3 kmh 30.16 in1021.3 mb 0.00 in0.0 mm 0.00 in/hr0.0 mm/hr 0.05 in1.3 mm
05:10 PM 58.1°F14.5°C 45.2°F7.3°C 62% 0.8 mph SW1.3 kmh SW 3.0 mph4.8 kmh 30.16 in1021.3 mb 0.00 in0.0 mm 0.00 in/hr0.0 mm/hr 0.05 in1.3 mm
05:20 PM 57.4°F14.1°C 44.1°F6.7°C 61% 1.0 mph WSW1.6 kmh WSW 4.0 mph6.4 kmh 30.16 in1021.3 mb 0.00 in0.0 mm 0.00 in/hr0.0 mm/hr 0.05 in1.3 mm
05:30 PM 56.9°F13.8°C 43.6°F6.4°C 61% 0.3 mph WSW0.5 kmh WSW 4.0 mph6.4 kmh 30.16 in1021.3 mb 0.00 in0.0 mm 0.00 in/hr0.0 mm/hr 0.05 in1.3 mm
05:40 PM 56.2°F13.4°C 43.8°F6.6°C 63% Calm Calm -- 30.17 in1021.7 mb 0.00 in0.0 mm 0.00 in/hr0.0 mm/hr 0.05 in1.3 mm
05:50 PM 55.6°F13.1°C 43.6°F6.4°C 64% Calm Calm -- 30.17 in1021.7 mb 0.00 in0.0 mm 0.00 in/hr0.0 mm/hr 0.05 in1.3 mm
06:00 PM 55.1°F12.8°C 43.6°F6.4°C 65% Calm Calm -- 30.18 in1022.0 mb 0.00 in0.0 mm 0.00 in/hr0.0 mm/hr 0.05 in1.3 mm
06:10 PM 54.8°F12.7°C 43.7°F6.5°C 66% 0.2 mph SW0.3 kmh SW 5.0 mph8.0 kmh 30.18 in1022.0 mb 0.00 in0.0 mm 0.00 in/hr0.0 mm/hr 0.05 in1.3 mm
06:20 PM 54.5°F12.5°C 43.8°F6.6°C 67% 0.3 mph WNW0.5 kmh WNW -- 30.19 in1022.4 mb 0.00 in0.0 mm 0.00 in/hr0.0 mm/hr 0.05 in1.3 mm
06:30 PM 54.3°F12.4°C 44.0°F6.7°C 68% Calm Calm -- 30.19 in1022.4 mb 0.00 in0.0 mm 0.00 in/hr0.0 mm/hr 0.05 in1.3 mm
06:40 PM 54.4°F12.4°C 44.0°F6.7°C 68% Calm Calm -- 30.20 in1022.7 mb 0.00 in0.0 mm 0.00 in/hr0.0 mm/hr 0.05 in1.3 mm
06:50 PM 54.1°F12.3°C 44.2°F6.8°C 69% Calm Calm -- 30.20 in1022.7 mb 0.00 in0.0 mm 0.00 in/hr0.0 mm/hr 0.05 in1.3 mm
07:00 PM 53.7°F12.1°C 43.8°F6.6°C 69% Calm Calm -- 30.20 in1022.7 mb 0.00 in0.0 mm 0.00 in/hr0.0 mm/hr 0.05 in1.3 mm
07:10 PM 53.4°F11.9°C 43.9°F6.6°C 70% Calm Calm -- 30.21 in1023.0 mb 0.00 in0.0 mm 0.00 in/hr0.0 mm/hr 0.05 in1.3 mm
07:20 PM 52.7°F11.5°C 43.6°F6.4°C 71% Calm Calm -- 30.21 in1023.0 mb 0.00 in0.0 mm 0.00 in/hr0.0 mm/hr 0.05 in1.3 mm
07:30 PM 52.4°F11.3°C 43.6°F6.4°C 72% Calm Calm -- 30.21 in1023.0 mb 0.00 in0.0 mm 0.00 in/hr0.0 mm/hr 0.05 in1.3 mm
07:40 PM 51.9°F11.1°C 43.2°F6.2°C 72% Calm Calm -- 30.21 in1023.0 mb 0.00 in0.0 mm 0.00 in/hr0.0 mm/hr 0.05 in1.3 mm
07:50 PM 51.2°F10.7°C 42.9°F6.1°C 73% Calm Calm -- 30.21 in1023.0 mb 0.00 in0.0 mm 0.00 in/hr0.0 mm/hr 0.05 in1.3 mm
08:00 PM 50.6°F10.3°C 43.0°F6.1°C 75% Calm Calm -- 30.22 in1023.4 mb 0.00 in0.0 mm 0.00 in/hr0.0 mm/hr 0.05 in1.3 mm
08:10 PM 50.2°F10.1°C 42.9°F6.1°C 76% Calm Calm -- 30.22 in1023.4 mb 0.00 in0.0 mm 0.00 in/hr0.0 mm/hr 0.05 in1.3 mm
08:20 PM 50.1°F10.1°C 42.8°F6.0°C 76% Calm Calm -- 30.23 in1023.7 mb 0.00 in0.0 mm 0.00 in/hr0.0 mm/hr 0.05 in1.3 mm
08:30 PM 50.3°F10.2°C 43.0°F6.1°C 76% Calm Calm -- 30.23 in1023.7 mb 0.00 in0.0 mm 0.00 in/hr0.0 mm/hr 0.05 in1.3 mm
08:40 PM 50.2°F10.1°C 42.9°F6.1°C 76% Calm Calm -- 30.23 in1023.7 mb 0.00 in0.0 mm 0.00 in/hr0.0 mm/hr 0.05 in1.3 mm
08:50 PM 50.1°F10.1°C 42.8°F6.0°C 76% Calm Calm -- 30.24 in1024.0 mb 0.00 in0.0 mm 0.00 in/hr0.0 mm/hr 0.05 in1.3 mm
09:00 PM 50.6°F10.3°C 43.0°F6.1°C 75% Calm Calm -- 30.24 in1024.0 mb 0.00 in0.0 mm 0.00 in/hr0.0 mm/hr 0.05 in1.3 mm
09:10 PM 50.7°F10.4°C 42.7°F5.9°C 74% Calm Calm -- 30.24 in1024.0 mb 0.00 in0.0 mm 0.00 in/hr0.0 mm/hr 0.05 in1.3 mm
09:20 PM 50.9°F10.5°C 42.9°F6.1°C 74% Calm Calm -- 30.25 in1024.4 mb 0.00 in0.0 mm 0.00 in/hr0.0 mm/hr 0.05 in1.3 mm
09:30 PM 51.0°F10.6°C 42.6°F5.9°C 73% Calm Calm -- 30.25 in1024.4 mb 0.00 in0.0 mm 0.00 in/hr0.0 mm/hr 0.05 in1.3 mm
09:40 PM 51.0°F10.6°C 42.6°F5.9°C 73% 0.1 mph NNW0.2 kmh NNW 2.0 mph3.2 kmh 30.25 in1024.4 mb 0.00 in0.0 mm 0.00 in/hr0.0 mm/hr 0.05 in1.3 mm
09:50 PM 50.8°F10.4°C 42.5°F5.8°C 73% Calm Calm -- 30.25 in1024.4 mb 0.00 in0.0 mm 0.00 in/hr0.0 mm/hr 0.05 in1.3 mm
10:00 PM 50.6°F10.3°C 42.6°F5.9°C 74% Calm Calm -- 30.25 in1024.4 mb 0.00 in0.0 mm 0.00 in/hr0.0 mm/hr 0.05 in1.3 mm
10:10 PM 50.6°F10.3°C 42.6°F5.9°C 74% Calm Calm 3.0 mph4.8 kmh 30.26 in1024.7 mb 0.00 in0.0 mm 0.00 in/hr0.0 mm/hr 0.05 in1.3 mm
10:20 PM 50.5°F10.3°C 42.5°F5.8°C 74% 1.6 mph NW2.6 kmh NW 3.0 mph4.8 kmh 30.25 in1024.4 mb 0.00 in0.0 mm 0.00 in/hr0.0 mm/hr 0.05 in1.3 mm
10:30 PM 50.5°F10.3°C 42.5°F5.8°C 74% 0.1 mph NW0.2 kmh NW 3.0 mph4.8 kmh 30.25 in1024.4 mb 0.00 in0.0 mm 0.00 in/hr0.0 mm/hr 0.05 in1.3 mm
10:40 PM 50.4°F10.2°C 42.4°F5.8°C 74% Calm Calm -- 30.25 in1024.4 mb 0.00 in0.0 mm 0.00 in/hr0.0 mm/hr 0.05 in1.3 mm
10:50 PM 50.4°F10.2°C 42.4°F5.8°C 74% Calm Calm -- 30.25 in1024.4 mb 0.00 in0.0 mm 0.00 in/hr0.0 mm/hr 0.05 in1.3 mm
11:00 PM 50.2°F10.1°C 42.2°F5.7°C 74% Calm Calm -- 30.25 in1024.4 mb 0.00 in0.0 mm 0.00 in/hr0.0 mm/hr 0.05 in1.3 mm
11:10 PM 49.8°F9.9°C 41.8°F5.4°C 74% Calm Calm -- 30.25 in1024.4 mb 0.00 in0.0 mm 0.00 in/hr0.0 mm/hr 0.05 in1.3 mm
11:20 PM 49.3°F9.6°C 41.4°F5.2°C 74% 0.5 mph NW0.8 kmh NW -- 30.24 in1024.0 mb 0.00 in0.0 mm 0.00 in/hr0.0 mm/hr 0.05 in1.3 mm
11:30 PM 48.9°F9.4°C 41.3°F5.2°C 75% Calm Calm 3.0 mph4.8 kmh 30.25 in1024.4 mb 0.00 in0.0 mm 0.00 in/hr0.0 mm/hr 0.05 in1.3 mm
11:40 PM 48.5°F9.2°C 40.9°F4.9°C 75% Calm Calm -- 30.24 in1024.0 mb 0.00 in0.0 mm 0.00 in/hr0.0 mm/hr 0.05 in1.3 mm
11:50 PM 48.0°F8.9°C 40.8°F4.9°C 76% Calm Calm -- 30.24 in1024.0 mb 0.00 in0.0 mm 0.00 in/hr0.0 mm/hr 0.05 in1.3 mm